sensor_id;sensor_type;location;lat;lon;timestamp;pressure;altitude;pressure_sealevel;temperature;humidity
32933;BME280;19444;50.518;10.870;2023-04-28T00:02:17;96510.91;;;9.02;100.00
32933;BME280;19444;50.518;10.870;2023-04-28T00:05:14;96507.25;;;8.71;100.00
32933;BME280;19444;50.518;10.870;2023-04-28T00:08:11;96505.78;;;8.92;100.00
32933;BME280;19444;50.518;10.870;2023-04-28T00:11:11;96502.50;;;8.81;100.00
32933;BME280;19444;50.518;10.870;2023-04-28T00:14:08;96503.47;;;8.72;100.00
32933;BME280;19444;50.518;10.870;2023-04-28T00:17:05;96505.75;;;8.65;100.00
32933;BME280;19444;50.518;10.870;2023-04-28T00:20:02;96492.66;;;8.31;100.00
32933;BME280;19444;50.518;10.870;2023-04-28T00:22:59;96493.34;;;8.41;100.00
32933;BME280;19444;50.518;10.870;2023-04-28T00:25:56;96481.75;;;8.46;100.00
32933;BME280;19444;50.518;10.870;2023-04-28T00:28:53;96466.44;;;8.19;100.00
32933;BME280;19444;50.518;10.870;2023-04-28T00:31:50;96458.81;;;8.45;100.00
32933;BME280;19444;50.518;10.870;2023-04-28T00:34:47;96452.44;;;8.27;100.00
32933;BME280;19444;50.518;10.870;2023-04-28T00:37:44;96456.22;;;8.40;100.00
32933;BME280;19444;50.518;10.870;2023-04-28T00:40:41;96443.22;;;8.52;100.00
32933;BME280;19444;50.518;10.870;2023-04-28T00:43:48;96443.03;;;8.62;100.00
32933;BME280;19444;50.518;10.870;2023-04-28T00:46:45;96444.09;;;8.61;100.00
32933;BME280;19444;50.518;10.870;2023-04-28T00:49:43;96436.06;;;8.47;100.00
32933;BME280;19444;50.518;10.870;2023-04-28T00:52:42;96444.59;;;8.17;100.00
32933;BME280;19444;50.518;10.870;2023-04-28T00:55:39;96434.16;;;8.34;100.00
32933;BME280;19444;50.518;10.870;2023-04-28T00:58:36;96434.69;;;8.50;100.00
32933;BME280;19444;50.518;10.870;2023-04-28T01:01:34;96430.34;;;8.54;100.00
32933;BME280;19444;50.518;10.870;2023-04-28T01:04:32;96438.34;;;8.68;100.00
32933;BME280;19444;50.518;10.870;2023-04-28T01:07:30;96431.47;;;8.34;100.00
32933;BME280;19444;50.518;10.870;2023-04-28T01:10:27;96430.16;;;8.50;100.00
32933;BME280;19444;50.518;10.870;2023-04-28T01:13:24;96429.34;;;8.50;100.00
32933;BME280;19444;50.518;10.870;2023-04-28T01:16:21;96431.75;;;8.51;100.00
32933;BME280;19444;50.518;10.870;2023-04-28T01:19:22;96430.84;;;8.70;100.00
32933;BME280;19444;50.518;10.870;2023-04-28T01:22:19;96433.72;;;8.60;100.00
32933;BME280;19444;50.518;10.870;2023-04-28T01:25:16;96434.63;;;8.69;100.00
32933;BME280;19444;50.518;10.870;2023-04-28T01:28:12;96421.16;;;8.74;100.00
32933;BME280;19444;50.518;10.870;2023-04-28T01:31:09;96423.31;;;8.86;100.00
32933;BME280;19444;50.518;10.870;2023-04-28T01:34:06;96424.22;;;8.67;100.00
32933;BME280;19444;50.518;10.870;2023-04-28T01:37:03;96413.75;;;8.71;100.00
32933;BME280;19444;50.518;10.870;2023-04-28T01:40:00;96424.81;;;8.64;100.00
32933;BME280;19444;50.518;10.870;2023-04-28T01:42:57;96411.94;;;8.66;100.00
32933;BME280;19444;50.518;10.870;2023-04-28T01:45:54;96411.88;;;8.25;100.00
32933;BME280;19444;50.518;10.870;2023-04-28T01:48:51;96412.31;;;8.32;100.00
32933;BME280;19444;50.518;10.870;2023-04-28T01:51:48;96402.75;;;8.72;100.00
32933;BME280;19444;50.518;10.870;2023-04-28T01:54:45;96404.31;;;8.73;100.00
32933;BME280;19444;50.518;10.870;2023-04-28T01:57:41;96401.25;;;8.94;100.00
32933;BME280;19444;50.518;10.870;2023-04-28T02:00:38;96395.63;;;8.54;100.00
32933;BME280;19444;50.518;10.870;2023-04-28T02:03:35;96393.63;;;8.46;100.00
32933;BME280;19444;50.518;10.870;2023-04-28T02:06:32;96388.41;;;8.54;100.00
32933;BME280;19444;50.518;10.870;2023-04-28T02:09:29;96383.47;;;8.62;100.00
32933;BME280;19444;50.518;10.870;2023-04-28T02:12:26;96386.16;;;8.29;100.00
32933;BME280;19444;50.518;10.870;2023-04-28T02:15:23;96390.56;;;8.66;100.00
32933;BME280;19444;50.518;10.870;2023-04-28T02:18:20;96389.00;;;8.51;100.00
32933;BME280;19444;50.518;10.870;2023-04-28T02:21:17;96389.63;;;8.30;100.00
32933;BME280;19444;50.518;10.870;2023-04-28T02:24:14;96378.66;;;8.31;100.00
32933;BME280;19444;50.518;10.870;2023-04-28T02:27:11;96391.47;;;8.48;100.00
32933;BME280;19444;50.518;10.870;2023-04-28T02:30:09;96386.78;;;8.26;100.00
32933;BME280;19444;50.518;10.870;2023-04-28T02:33:06;96380.59;;;8.44;100.00
32933;BME280;19444;50.518;10.870;2023-04-28T02:36:04;96384.91;;;8.40;100.00
32933;BME280;19444;50.518;10.870;2023-04-28T02:39:01;96388.38;;;8.41;100.00
32933;BME280;19444;50.518;10.870;2023-04-28T02:41:58;96384.44;;;8.38;100.00
32933;BME280;19444;50.518;10.870;2023-04-28T02:44:55;96370.47;;;8.27;100.00
32933;BME280;19444;50.518;10.870;2023-04-28T02:47:52;96368.38;;;8.24;100.00
32933;BME280;19444;50.518;10.870;2023-04-28T02:50:49;96373.13;;;8.27;100.00
32933;BME280;19444;50.518;10.870;2023-04-28T02:53:46;96369.06;;;8.30;100.00
32933;BME280;19444;50.518;10.870;2023-04-28T02:56:43;96371.25;;;8.28;100.00
32933;BME280;19444;50.518;10.870;2023-04-28T02:59:40;96365.31;;;8.31;100.00
32933;BME280;19444;50.518;10.870;2023-04-28T03:02:37;96356.94;;;8.38;100.00
32933;BME280;19444;50.518;10.870;2023-04-28T03:05:35;96353.56;;;8.32;100.00
32933;BME280;19444;50.518;10.870;2023-04-28T03:08:32;96346.63;;;8.59;100.00
32933;BME280;19444;50.518;10.870;2023-04-28T03:11:28;96346.38;;;8.60;100.00
32933;BME280;19444;50.518;10.870;2023-04-28T03:14:25;96336.56;;;8.55;100.00
32933;BME280;19444;50.518;10.870;2023-04-28T03:17:22;96337.94;;;8.39;100.00
32933;BME280;19444;50.518;10.870;2023-04-28T03:20:19;96336.38;;;8.52;100.00
32933;BME280;19444;50.518;10.870;2023-04-28T03:23:16;96320.84;;;8.40;100.00
32933;BME280;19444;50.518;10.870;2023-04-28T03:26:13;96317.97;;;8.37;100.00
32933;BME280;19444;50.518;10.870;2023-04-28T03:29:10;96323.22;;;8.42;100.00
32933;BME280;19444;50.518;10.870;2023-04-28T03:32:07;96335.44;;;8.29;100.00
32933;BME280;19444;50.518;10.870;2023-04-28T03:35:04;96321.22;;;8.34;100.00
32933;BME280;19444;50.518;10.870;2023-04-28T03:38:01;96332.13;;;8.37;100.00
32933;BME280;19444;50.518;10.870;2023-04-28T03:40:58;96327.94;;;8.31;100.00
32933;BME280;19444;50.518;10.870;2023-04-28T03:43:55;96326.75;;;8.23;100.00
32933;BME280;19444;50.518;10.870;2023-04-28T03:46:52;96325.28;;;8.45;100.00
32933;BME280;19444;50.518;10.870;2023-04-28T03:49:49;96313.78;;;8.31;100.00
32933;BME280;19444;50.518;10.870;2023-04-28T03:52:46;96315.31;;;8.50;100.00
32933;BME280;19444;50.518;10.870;2023-04-28T03:55:43;96308.41;;;8.36;100.00
32933;BME280;19444;50.518;10.870;2023-04-28T03:58:40;96307.31;;;8.37;100.00
32933;BME280;19444;50.518;10.870;2023-04-28T04:01:37;96311.66;;;8.46;100.00
32933;BME280;19444;50.518;10.870;2023-04-28T04:04:34;96311.81;;;8.50;100.00
32933;BME280;19444;50.518;10.870;2023-04-28T04:07:31;96302.63;;;8.56;100.00
32933;BME280;19444;50.518;10.870;2023-04-28T04:10:28;96307.75;;;8.66;100.00
32933;BME280;19444;50.518;10.870;2023-04-28T04:13:25;96305.91;;;8.53;100.00
32933;BME280;19444;50.518;10.870;2023-04-28T04:16:22;96312.44;;;8.47;100.00
32933;BME280;19444;50.518;10.870;2023-04-28T04:19:19;96309.28;;;8.45;100.00
32933;BME280;19444;50.518;10.870;2023-04-28T04:22:16;96314.59;;;8.59;100.00
32933;BME280;19444;50.518;10.870;2023-04-28T04:25:13;96306.78;;;8.62;100.00
32933;BME280;19444;50.518;10.870;2023-04-28T04:28:10;96317.47;;;8.48;100.00
32933;BME280;19444;50.518;10.870;2023-04-28T04:31:06;96304.88;;;8.76;100.00
32933;BME280;19444;50.518;10.870;2023-04-28T04:34:04;96300.63;;;8.75;100.00
32933;BME280;19444;50.518;10.870;2023-04-28T04:37:01;96299.16;;;8.69;100.00
32933;BME280;19444;50.518;10.870;2023-04-28T04:39:58;96296.81;;;8.54;100.00
32933;BME280;19444;50.518;10.870;2023-04-28T04:42:54;96285.03;;;8.55;100.00
32933;BME280;19444;50.518;10.870;2023-04-28T04:45:52;96284.16;;;8.60;100.00
32933;BME280;19444;50.518;10.870;2023-04-28T04:48:48;96294.41;;;8.66;100.00
32933;BME280;19444;50.518;10.870;2023-04-28T04:51:45;96285.03;;;8.69;100.00
32933;BME280;19444;50.518;10.870;2023-04-28T04:54:42;96287.09;;;8.72;100.00
32933;BME280;19444;50.518;10.870;2023-04-28T04:57:39;96291.44;;;9.04;100.00
32933;BME280;19444;50.518;10.870;2023-04-28T05:00:36;96285.88;;;8.78;100.00
32933;BME280;19444;50.518;10.870;2023-04-28T05:03:33;96291.09;;;8.83;100.00
32933;BME280;19444;50.518;10.870;2023-04-28T05:06:30;96288.19;;;8.93;100.00
32933;BME280;19444;50.518;10.870;2023-04-28T05:09:27;96276.84;;;8.88;100.00
32933;BME280;19444;50.518;10.870;2023-04-28T05:12:26;96281.44;;;8.73;100.00
32933;BME280;19444;50.518;10.870;2023-04-28T05:15:23;96264.19;;;9.16;100.00
32933;BME280;19444;50.518;10.870;2023-04-28T05:18:20;96262.34;;;9.25;100.00
32933;BME280;19444;50.518;10.870;2023-04-28T05:21:17;96274.44;;;9.00;100.00
32933;BME280;19444;50.518;10.870;2023-04-28T05:24:14;96259.13;;;9.14;100.00
32933;BME280;19444;50.518;10.870;2023-04-28T05:27:11;96252.75;;;9.24;100.00
32933;BME280;19444;50.518;10.870;2023-04-28T05:30:09;96250.38;;;9.22;100.00
32933;BME280;19444;50.518;10.870;2023-04-28T05:33:06;96249.13;;;9.51;100.00
32933;BME280;19444;50.518;10.870;2023-04-28T05:36:03;96254.94;;;9.44;100.00
32933;BME280;19444;50.518;10.870;2023-04-28T05:39:01;96249.31;;;9.54;100.00
32933;BME280;19444;50.518;10.870;2023-04-28T05:41:58;96254.47;;;9.51;100.00
32933;BME280;19444;50.518;10.870;2023-04-28T05:44:54;96250.09;;;9.55;100.00
32933;BME280;19444;50.518;10.870;2023-04-28T05:47:51;96253.78;;;9.67;100.00
32933;BME280;19444;50.518;10.870;2023-04-28T05:50:48;96252.81;;;9.94;100.00
32933;BME280;19444;50.518;10.870;2023-04-28T05:53:45;96248.78;;;9.75;100.00
32933;BME280;19444;50.518;10.870;2023-04-28T05:56:44;96250.09;;;9.86;100.00
32933;BME280;19444;50.518;10.870;2023-04-28T05:59:41;96250.13;;;10.25;100.00
32933;BME280;19444;50.518;10.870;2023-04-28T06:02:38;96263.19;;;10.27;100.00
32933;BME280;19444;50.518;10.870;2023-04-28T06:05:35;96258.00;;;9.91;100.00
32933;BME280;19444;50.518;10.870;2023-04-28T06:08:33;96261.94;;;10.24;100.00
32933;BME280;19444;50.518;10.870;2023-04-28T06:11:30;96262.28;;;10.01;100.00
32933;BME280;19444;50.518;10.870;2023-04-28T06:14:27;96271.31;;;10.13;100.00
32933;BME280;19444;50.518;10.870;2023-04-28T06:17:24;96269.03;;;10.29;100.00
32933;BME280;19444;50.518;10.870;2023-04-28T06:20:21;96263.06;;;9.61;100.00
32933;BME280;19444;50.518;10.870;2023-04-28T06:23:17;96260.47;;;9.87;100.00
32933;BME280;19444;50.518;10.870;2023-04-28T06:26:14;96261.94;;;9.93;100.00
32933;BME280;19444;50.518;10.870;2023-04-28T06:29:14;96265.59;;;9.66;100.00
32933;BME280;19444;50.518;10.870;2023-04-28T06:32:10;96253.28;;;9.88;100.00
32933;BME280;19444;50.518;10.870;2023-04-28T06:35:07;96254.19;;;9.83;100.00
32933;BME280;19444;50.518;10.870;2023-04-28T06:38:06;96256.59;;;10.24;100.00
32933;BME280;19444;50.518;10.870;2023-04-28T06:41:03;96256.09;;;10.31;100.00
32933;BME280;19444;50.518;10.870;2023-04-28T06:43:59;96255.78;;;10.33;100.00
32933;BME280;19444;50.518;10.870;2023-04-28T06:46:56;96256.09;;;10.31;100.00
32933;BME280;19444;50.518;10.870;2023-04-28T06:49:53;96254.31;;;10.18;100.00
32933;BME280;19444;50.518;10.870;2023-04-28T06:52:50;96245.13;;;10.02;100.00
32933;BME280;19444;50.518;10.870;2023-04-28T06:55:47;96246.84;;;10.37;100.00
32933;BME280;19444;50.518;10.870;2023-04-28T06:58:44;96234.91;;;10.52;100.00
32933;BME280;19444;50.518;10.870;2023-04-28T07:01:41;96243.75;;;10.13;100.00
32933;BME280;19444;50.518;10.870;2023-04-28T07:04:38;96248.22;;;10.26;100.00
32933;BME280;19444;50.518;10.870;2023-04-28T07:07:35;96249.94;;;10.22;100.00
32933;BME280;19444;50.518;10.870;2023-04-28T07:10:34;96239.03;;;10.18;100.00
32933;BME280;19444;50.518;10.870;2023-04-28T07:13:32;96246.22;;;10.49;100.00
32933;BME280;19444;50.518;10.870;2023-04-28T07:16:29;96255.69;;;10.46;100.00
32933;BME280;19444;50.518;10.870;2023-04-28T07:19:26;96253.50;;;10.57;100.00
32933;BME280;19444;50.518;10.870;2023-04-28T07:22:22;96246.09;;;10.63;100.00
32933;BME280;19444;50.518;10.870;2023-04-28T07:25:19;96246.56;;;10.73;100.00
32933;BME280;19444;50.518;10.870;2023-04-28T07:28:17;96252.69;;;10.48;100.00
32933;BME280;19444;50.518;10.870;2023-04-28T07:31:14;96244.97;;;10.46;100.00
32933;BME280;19444;50.518;10.870;2023-04-28T07:34:10;96248.00;;;10.79;100.00
32933;BME280;19444;50.518;10.870;2023-04-28T07:37:07;96245.88;;;10.42;100.00
32933;BME280;19444;50.518;10.870;2023-04-28T07:40:05;96253.19;;;11.19;100.00
32933;BME280;19444;50.518;10.870;2023-04-28T07:43:02;96257.31;;;10.99;100.00
32933;BME280;19444;50.518;10.870;2023-04-28T07:45:59;96246.41;;;11.04;100.00
32933;BME280;19444;50.518;10.870;2023-04-28T07:48:56;96248.78;;;11.23;100.00
32933;BME280;19444;50.518;10.870;2023-04-28T07:51:53;96257.56;;;11.50;100.00
32933;BME280;19444;50.518;10.870;2023-04-28T07:54:51;96247.03;;;11.27;100.00
32933;BME280;19444;50.518;10.870;2023-04-28T07:57:48;96252.19;;;11.58;100.00
32933;BME280;19444;50.518;10.870;2023-04-28T08:00:45;96254.28;;;11.53;100.00
32933;BME280;19444;50.518;10.870;2023-04-28T08:03:42;96249.22;;;11.43;100.00
32933;BME280;19444;50.518;10.870;2023-04-28T08:06:39;96254.44;;;11.48;100.00
32933;BME280;19444;50.518;10.870;2023-04-28T08:09:36;96254.78;;;11.29;100.00
32933;BME280;19444;50.518;10.870;2023-04-28T08:12:33;96254.72;;;11.55;100.00
32933;BME280;19444;50.518;10.870;2023-04-28T08:15:30;96242.97;;;11.77;100.00
32933;BME280;19444;50.518;10.870;2023-04-28T08:18:28;96244.00;;;11.46;100.00
32933;BME280;19444;50.518;10.870;2023-04-28T08:21:25;96234.13;;;11.76;100.00
32933;BME280;19444;50.518;10.870;2023-04-28T08:24:22;96226.50;;;11.95;100.00
32933;BME280;19444;50.518;10.870;2023-04-28T08:27:19;96229.53;;;11.94;100.00
32933;BME280;19444;50.518;10.870;2023-04-28T08:30:16;96237.97;;;12.13;100.00
32933;BME280;19444;50.518;10.870;2023-04-28T08:33:13;96223.03;;;12.24;100.00
32933;BME280;19444;50.518;10.870;2023-04-28T08:36:10;96229.69;;;12.27;100.00
32933;BME280;19444;50.518;10.870;2023-04-28T08:39:13;96234.44;;;11.92;100.00
32933;BME280;19444;50.518;10.870;2023-04-28T08:42:10;96230.84;;;12.17;100.00
32933;BME280;19444;50.518;10.870;2023-04-28T08:45:13;96243.75;;;11.86;100.00
32933;BME280;19444;50.518;10.870;2023-04-28T08:48:21;96252.97;;;11.59;100.00
32933;BME280;19444;50.518;10.870;2023-04-28T08:51:34;96240.16;;;11.73;100.00
32933;BME280;19444;50.518;10.870;2023-04-28T08:54:39;96243.00;;;12.15;100.00
32933;BME280;19444;50.518;10.870;2023-04-28T08:57:48;96251.25;;;12.10;100.00
32933;BME280;19444;50.518;10.870;2023-04-28T09:00:47;96241.63;;;12.38;100.00
32933;BME280;19444;50.518;10.870;2023-04-28T09:03:44;96232.63;;;12.34;100.00
32933;BME280;19444;50.518;10.870;2023-04-28T09:06:43;96231.78;;;11.83;100.00
32933;BME280;19444;50.518;10.870;2023-04-28T09:09:41;96212.63;;;11.93;100.00
32933;BME280;19444;50.518;10.870;2023-04-28T09:12:40;96198.41;;;11.93;100.00
32933;BME280;19444;50.518;10.870;2023-04-28T09:15:38;96169.09;;;12.59;100.00
32933;BME280;19444;50.518;10.870;2023-04-28T09:18:36;96159.13;;;12.60;100.00
32933;BME280;19444;50.518;10.870;2023-04-28T09:21:55;96142.59;;;12.49;100.00
32933;BME280;19444;50.518;10.870;2023-04-28T09:24:52;96135.13;;;13.08;100.00
32933;BME280;19444;50.518;10.870;2023-04-28T09:27:51;96171.31;;;13.32;100.00
32933;BME280;19444;50.518;10.870;2023-04-28T09:30:48;96177.50;;;13.12;100.00
32933;BME280;19444;50.518;10.870;2023-04-28T09:33:58;96204.78;;;12.18;100.00
32933;BME280;19444;50.518;10.870;2023-04-28T09:36:55;96208.16;;;12.77;100.00
32933;BME280;19444;50.518;10.870;2023-04-28T09:39:53;96221.72;;;12.10;100.00
32933;BME280;19444;50.518;10.870;2023-04-28T09:42:50;96226.53;;;11.78;100.00
32933;BME280;19444;50.518;10.870;2023-04-28T09:45:47;96218.19;;;12.18;100.00
32933;BME280;19444;50.518;10.870;2023-04-28T09:48:44;96228.28;;;11.91;100.00
32933;BME280;19444;50.518;10.870;2023-04-28T09:51:41;96229.81;;;11.46;100.00
32933;BME280;19444;50.518;10.870;2023-04-28T09:54:38;96225.22;;;11.46;100.00
32933;BME280;19444;50.518;10.870;2023-04-28T09:57:35;96219.59;;;11.77;100.00
32933;BME280;19444;50.518;10.870;2023-04-28T10:00:33;96221.06;;;12.13;100.00
32933;BME280;19444;50.518;10.870;2023-04-28T10:03:30;96211.97;;;11.96;100.00
32933;BME280;19444;50.518;10.870;2023-04-28T10:06:27;96206.97;;;12.16;100.00
32933;BME280;19444;50.518;10.870;2023-04-28T10:09:26;96214.56;;;11.76;100.00
32933;BME280;19444;50.518;10.870;2023-04-28T10:12:24;96207.81;;;11.61;100.00
32933;BME280;19444;50.518;10.870;2023-04-28T10:15:22;96200.50;;;11.70;100.00
32933;BME280;19444;50.518;10.870;2023-04-28T10:18:21;96196.50;;;11.93;100.00
32933;BME280;19444;50.518;10.870;2023-04-28T10:21:20;96192.63;;;11.74;100.00
32933;BME280;19444;50.518;10.870;2023-04-28T10:24:28;96188.06;;;11.65;100.00
32933;BME280;19444;50.518;10.870;2023-04-28T10:27:29;96186.97;;;11.66;100.00
32933;BME280;19444;50.518;10.870;2023-04-28T10:30:27;96182.22;;;11.81;100.00
32933;BME280;19444;50.518;10.870;2023-04-28T10:33:25;96173.41;;;12.01;100.00
32933;BME280;19444;50.518;10.870;2023-04-28T10:36:49;96154.91;;;12.71;100.00
32933;BME280;19444;50.518;10.870;2023-04-28T10:40:31;96163.56;;;12.76;100.00
32933;BME280;19444;50.518;10.870;2023-04-28T10:47:04;96164.84;;;12.08;100.00
32933;BME280;19444;50.518;10.870;2023-04-28T10:50:07;96158.22;;;12.56;100.00
32933;BME280;19444;50.518;10.870;2023-04-28T10:53:04;96165.66;;;12.92;100.00
32933;BME280;19444;50.518;10.870;2023-04-28T10:56:15;96156.59;;;12.34;100.00
32933;BME280;19444;50.518;10.870;2023-04-28T10:59:25;96167.16;;;11.88;100.00
32933;BME280;19444;50.518;10.870;2023-04-28T11:02:38;96146.38;;;12.90;100.00
32933;BME280;19444;50.518;10.870;2023-04-28T11:06:19;96150.22;;;12.47;100.00
32933;BME280;19444;50.518;10.870;2023-04-28T11:13:26;96124.59;;;13.73;100.00
32933;BME280;19444;50.518;10.870;2023-04-28T11:16:24;96111.00;;;13.94;100.00
32933;BME280;19444;50.518;10.870;2023-04-28T11:19:26;96111.59;;;14.52;100.00
32933;BME280;19444;50.518;10.870;2023-04-28T11:22:24;96121.28;;;14.16;100.00
32933;BME280;19444;50.518;10.870;2023-04-28T11:25:21;96108.88;;;14.64;100.00
32933;BME280;19444;50.518;10.870;2023-04-28T11:28:18;96116.84;;;14.61;100.00
32933;BME280;19444;50.518;10.870;2023-04-28T11:31:17;96124.59;;;14.62;100.00
32933;BME280;19444;50.518;10.870;2023-04-28T11:34:20;96122.63;;;14.22;100.00
32933;BME280;19444;50.518;10.870;2023-04-28T11:37:17;96123.22;;;13.79;100.00
32933;BME280;19444;50.518;10.870;2023-04-28T11:40:17;96117.19;;;13.94;100.00
32933;BME280;19444;50.518;10.870;2023-04-28T11:43:14;96116.91;;;14.24;100.00
32933;BME280;19444;50.518;10.870;2023-04-28T11:46:19;96121.41;;;14.08;100.00
32933;BME280;19444;50.518;10.870;2023-04-28T11:49:18;96124.34;;;13.42;100.00
32933;BME280;19444;50.518;10.870;2023-04-28T11:52:15;96121.66;;;13.78;100.00
32933;BME280;19444;50.518;10.870;2023-04-28T11:55:15;96125.56;;;14.30;100.00
32933;BME280;19444;50.518;10.870;2023-04-28T11:58:19;96113.56;;;14.15;100.00
32933;BME280;19444;50.518;10.870;2023-04-28T12:01:19;96117.84;;;13.79;100.00
32933;BME280;19444;50.518;10.870;2023-04-28T12:07:43;96116.44;;;14.34;100.00
32933;BME280;19444;50.518;10.870;2023-04-28T12:10:41;96114.44;;;14.31;100.00
32933;BME280;19444;50.518;10.870;2023-04-28T12:13:38;96120.66;;;13.95;100.00
32933;BME280;19444;50.518;10.870;2023-04-28T12:16:40;96115.84;;;13.76;100.00
32933;BME280;19444;50.518;10.870;2023-04-28T12:19:43;96121.31;;;13.80;100.00
32933;BME280;19444;50.518;10.870;2023-04-28T12:22:51;96123.59;;;13.90;100.00
32933;BME280;19444;50.518;10.870;2023-04-28T12:25:48;96127.38;;;13.52;100.00
32933;BME280;19444;50.518;10.870;2023-04-28T12:28:44;96124.03;;;13.92;100.00
32933;BME280;19444;50.518;10.870;2023-04-28T12:31:50;96124.44;;;13.00;100.00
32933;BME280;19444;50.518;10.870;2023-04-28T12:34:49;96129.16;;;13.48;100.00
32933;BME280;19444;50.518;10.870;2023-04-28T12:37:47;96119.19;;;13.61;100.00
32933;BME280;19444;50.518;10.870;2023-04-28T12:40:44;96115.94;;;13.55;100.00
32933;BME280;19444;50.518;10.870;2023-04-28T12:43:42;96117.47;;;13.20;100.00
32933;BME280;19444;50.518;10.870;2023-04-28T12:46:40;96116.22;;;13.17;100.00
32933;BME280;19444;50.518;10.870;2023-04-28T12:49:37;96110.91;;;13.78;100.00
32933;BME280;19444;50.518;10.870;2023-04-28T12:52:35;96114.69;;;13.41;100.00
32933;BME280;19444;50.518;10.870;2023-04-28T12:55:33;96113.56;;;12.96;100.00
32933;BME280;19444;50.518;10.870;2023-04-28T12:58:30;96116.69;;;13.31;100.00
32933;BME280;19444;50.518;10.870;2023-04-28T13:01:27;96106.16;;;13.38;100.00
32933;BME280;19444;50.518;10.870;2023-04-28T13:04:24;96114.22;;;13.26;100.00
32933;BME280;19444;50.518;10.870;2023-04-28T13:07:21;96116.41;;;13.57;100.00
32933;BME280;19444;50.518;10.870;2023-04-28T13:10:18;96114.06;;;13.10;100.00
32933;BME280;19444;50.518;10.870;2023-04-28T13:13:17;96118.16;;;12.96;100.00
32933;BME280;19444;50.518;10.870;2023-04-28T13:16:13;96115.69;;;12.70;100.00
32933;BME280;19444;50.518;10.870;2023-04-28T13:19:10;96121.25;;;13.19;100.00
32933;BME280;19444;50.518;10.870;2023-04-28T13:22:09;96127.19;;;12.58;100.00
32933;BME280;19444;50.518;10.870;2023-04-28T13:25:08;96118.31;;;13.45;100.00
32933;BME280;19444;50.518;10.870;2023-04-28T13:28:05;96114.31;;;13.18;100.00
32933;BME280;19444;50.518;10.870;2023-04-28T13:31:02;96119.63;;;13.38;100.00
32933;BME280;19444;50.518;10.870;2023-04-28T13:33:59;96116.00;;;13.22;100.00
32933;BME280;19444;50.518;10.870;2023-04-28T13:37:00;96118.19;;;13.53;100.00
32933;BME280;19444;50.518;10.870;2023-04-28T13:39:57;96109.94;;;13.25;100.00
32933;BME280;19444;50.518;10.870;2023-04-28T13:42:55;96116.69;;;13.19;100.00
32933;BME280;19444;50.518;10.870;2023-04-28T13:45:52;96111.81;;;13.13;100.00
32933;BME280;19444;50.518;10.870;2023-04-28T13:48:49;96112.03;;;13.07;100.00
32933;BME280;19444;50.518;10.870;2023-04-28T13:51:46;96111.91;;;13.16;100.00
32933;BME280;19444;50.518;10.870;2023-04-28T13:54:43;96119.44;;;13.10;100.00
32933;BME280;19444;50.518;10.870;2023-04-28T13:57:40;96117.16;;;13.00;100.00
32933;BME280;19444;50.518;10.870;2023-04-28T14:00:37;96094.19;;;13.60;100.00
32933;BME280;19444;50.518;10.870;2023-04-28T14:03:34;96098.31;;;13.33;100.00
32933;BME280;19444;50.518;10.870;2023-04-28T14:06:31;96109.88;;;13.46;100.00
32933;BME280;19444;50.518;10.870;2023-04-28T14:09:30;96104.31;;;13.18;100.00
32933;BME280;19444;50.518;10.870;2023-04-28T14:12:28;96112.09;;;13.20;100.00
32933;BME280;19444;50.518;10.870;2023-04-28T14:15:25;96091.72;;;13.55;100.00
32933;BME280;19444;50.518;10.870;2023-04-28T14:18:21;96095.50;;;13.42;100.00
32933;BME280;19444;50.518;10.870;2023-04-28T14:21:18;96099.31;;;13.29;100.00
32933;BME280;19444;50.518;10.870;2023-04-28T14:24:15;96088.56;;;13.29;100.00
32933;BME280;19444;50.518;10.870;2023-04-28T14:27:13;96088.91;;;13.40;100.00
32933;BME280;19444;50.518;10.870;2023-04-28T14:30:11;96080.38;;;13.62;100.00
32933;BME280;19444;50.518;10.870;2023-04-28T14:33:07;96087.44;;;13.42;100.00
32933;BME280;19444;50.518;10.870;2023-04-28T14:36:04;96078.19;;;13.19;100.00
32933;BME280;19444;50.518;10.870;2023-04-28T14:39:01;96078.72;;;13.45;100.00
32933;BME280;19444;50.518;10.870;2023-04-28T14:41:58;96074.97;;;13.86;100.00
32933;BME280;19444;50.518;10.870;2023-04-28T14:44:56;96083.88;;;13.62;100.00
32933;BME280;19444;50.518;10.870;2023-04-28T14:47:52;96082.38;;;13.28;100.00
32933;BME280;19444;50.518;10.870;2023-04-28T14:50:49;96079.25;;;12.93;100.00
32933;BME280;19444;50.518;10.870;2023-04-28T14:53:47;96075.50;;;13.19;100.00
32933;BME280;19444;50.518;10.870;2023-04-28T14:56:44;96071.69;;;13.07;100.00
32933;BME280;19444;50.518;10.870;2023-04-28T14:59:41;96060.53;;;13.66;100.00
32933;BME280;19444;50.518;10.870;2023-04-28T15:02:38;96068.50;;;13.75;100.00
32933;BME280;19444;50.518;10.870;2023-04-28T15:05:35;96052.19;;;13.96;100.00
32933;BME280;19444;50.518;10.870;2023-04-28T15:08:32;96066.59;;;13.63;100.00
32933;BME280;19444;50.518;10.870;2023-04-28T15:11:29;96058.28;;;13.69;100.00
32933;BME280;19444;50.518;10.870;2023-04-28T15:14:27;96057.03;;;13.78;100.00
32933;BME280;19444;50.518;10.870;2023-04-28T15:17:24;96054.78;;;13.80;100.00
32933;BME280;19444;50.518;10.870;2023-04-28T15:20:21;96059.66;;;13.62;100.00
32933;BME280;19444;50.518;10.870;2023-04-28T15:23:18;96060.50;;;13.91;100.00
32933;BME280;19444;50.518;10.870;2023-04-28T15:26:15;96052.81;;;14.17;100.00
32933;BME280;19444;50.518;10.870;2023-04-28T15:29:12;96064.34;;;13.90;100.00
32933;BME280;19444;50.518;10.870;2023-04-28T15:32:09;96060.59;;;13.94;100.00
32933;BME280;19444;50.518;10.870;2023-04-28T15:35:06;96071.59;;;13.89;100.00